Racecast

OHSAA Northwest - Division III

Ottawa Park Golf Course · 5000m · Girls · District 1 · 2013-10-19 · OH

Course difficulty: -0.001

Race-day weather: 45°F · wind 35 mph · humidity 80% · rain before the race

View full meet →

Team scores

Place Team Points 12345 67
1 Minster (OH) 17 1 2 3 5 6 9 10
2 Ft. Recovery (OH) 85 7 13 14 16 35 44 47
3 Marion Local (OH) 105 15 17 18 26 29 31 45
4 Spencerville (OH) 105 8 12 19 28 38 53
5 Bluffton (OH) 137 20 22 23 24 48 51 59
6 Kalida (OH) 158 4 27 36 39 52 56 64
7 Columbus Grove (OH) 159 21 25 33 37 43 49 50
8 Del. St. John's (OH) 179 11 30 41 42 55
9 Lincolnview (OH) 235 32 34 54 57 58
10 Waynesfield-Goshen (OH) 269 40 46 60 61 62 63

As scored by the meet.

Results

Place Athlete Grade School Time Rating Points
1 Morgan Pohl 9 Minster (OH) 1 20:09.6 122.1 1
2 Julia Slonkosky 10 Minster (OH) 2 20:30.4 120.1 2
3 Kaci Bornhorst 10 Minster (OH) 3 20:32.6 119.9 3
4 Katelyn Siebeneck 10 Kalida (OH) 1 20:33.8 119.7 4
5 Lisa Barlage 10 Minster (OH) 4 20:34.8 SR 119.7 5
6 Gabrielle Barga 11 Minster (OH) 5 20:41.2 SR 119.0 6
7 Elle Sutter 12 Ft. Recovery (OH) 1 20:47.7 118.4 7
8 Cierra Adams 11 Spencerville (OH) 1 20:53.9 SR 117.8 8
9 Ali Borgerding 9 Minster (OH) 6 20:59 117.3 9
10 Katherine Burke 10 Minster (OH) 7 21:09 116.4 10
11 Megan Joseph 12 Del. St. John's (OH) 1 21:23.9 115.1 11
12 Karri Purdy 12 Spencerville (OH) 2 21:26 114.9 12
13 Angela Heitkamp 9 Ft. Recovery (OH) 2 21:58.4 PR 112.1 13
14 Julie Wendel 10 Ft. Recovery (OH) 3 22:03.6 PR 111.6 14
15 Courtney Albers 12 Marion Local (OH) 1 22:06.5 PR 111.4 15
16 Grace Gehle 9 Ft. Recovery (OH) 4 22:07.8 111.3 16
17 Sophie Heitkamp 12 Marion Local (OH) 2 22:20.2 PR 110.2 17
18 Beth Wolters 12 Marion Local (OH) 3 22:28 109.6 18
19 Tori Hardesty 12 Spencerville (OH) 3 22:32.6 109.2 19
20 Morgan Humphreys 12 Bluffton (OH) 1 22:38.9 SR 108.7 20
21 Alexis Ricker 11 Columbus Grove (OH) 1 22:39.7 108.7 21
22 Ashley Schweyer 10 Bluffton (OH) 2 22:40.6 PR 108.6 22
23 Adel Sommers 11 Bluffton (OH) 3 22:44.1 108.3 23
24 Audrey Marshall 12 Bluffton (OH) 4 22:46.8 SR 108.1 24
25 Megan Langhals 11 Columbus Grove (OH) 2 23:03.8 106.8 25
26 Olivia Hemmelgarn 12 Marion Local (OH) 4 23:04.9 SR 106.7 26
27 Elizabeth Luersman 11 Ottoville (OH) 1 23:05.3 PR 106.7
28 Kristen Fortman 9 Kalida (OH) 2 23:06.7 PR 106.5 27
29 Kacie Mulholland 11 Spencerville (OH) 4 23:10.6 SR 106.2 28
30 Katie Heitkamp 12 Marion Local (OH) 5 23:15.4 105.9 29
31 Breece Rohr 9 Del. St. John's (OH) 2 23:16.7 105.8 30
32 Ashlynn Berning 10 Marion Local (OH) 6 23:20.7 105.5 31
33 Anna Gorman 10 Lincolnview (OH) 1 23:23.4 105.3 32
34 Leah Myerholtz 9 Columbus Grove (OH) 3 23:31.8 104.7 33
35 Abbie Enyart 9 Lincolnview (OH) 2 23:39.7 PR 104.1 34
36 Katie Braun 11 Ft. Recovery (OH) 5 23:47.1 103.5 35
37 Becca Brinkman 11 Kalida (OH) 3 23:47.2 PR 103.5 36
38 Gracyn Stechschulte 9 Columbus Grove (OH) 4 23:47.6 103.5 37
39 Megan Miller 11 Spencerville (OH) 5 23:51.2 PR 103.2 38
40 Kelly Doepker 9 Kalida (OH) 4 23:55 102.9 39
41 Makenzie Braden 10 Waynesfield-Goshen (OH) 1 23:56.3 PR 102.9 40
42 Cassie Demoss 9 Lima Perry (OH) 1 24:03.3 PR 102.4
43 Lexi Pohlman 9 Del. St. John's (OH) 3 24:08.9 PR 102.0 41
44 Anna Mueller 10 Del. St. John's (OH) 4 24:12.6 101.7 42
45 Macy McCluer 9 Columbus Grove (OH) 5 24:14.9 101.6 43
46 Sydney Alig 9 Ft. Recovery (OH) 6 24:20.7 101.1 44
47 Vivian Garmann 9 Marion Local (OH) 7 24:37.1 100.0 45
48 Heidi Carl 10 Upper Scioto Valley (OH) 1 24:41.4 PR 99.7
49 Jonnell Case 10 Waynesfield-Goshen (OH) 2 24:42.6 PR 99.7 46
50 Paige McCain 11 Ft. Recovery (OH) 7 24:58.3 98.6 47
51 Courtney Barnett 12 Bluffton (OH) 5 25:01.5 SR 98.4 48
52 Lindsey Malsam 10 Columbus Grove (OH) 6 25:06.3 98.1 49
53 Alexandra Boyadzhiev 10 Ada (OK) 1 25:07.4 PR 98.0
54 Candace Downing 9 Columbus Grove (OH) 7 25:21.5 97.1 50
55 Erica Sheehan 11 Bluffton (OH) 6 25:31 96.5 51
56 Mikki Smith 9 Kalida (OH) 5 25:35 PR 96.2 52
57 Tesa Horton 12 Spencerville (OH) 6 26:26.8 93.1 53
58 Claira Rhoades 9 Lincolnview (OH) 3 26:35.8 92.6 54
59 Rebecca Hamrick 11 Wayne Trace (OH) 1 26:37.9 92.5
60 Shayna Temple 10 Wayne Trace (OH) 2 27:06.5 90.8
61 Baylee Lindeman 9 Del. St. John's (OH) 5 27:08.5 PR 90.7 55
62 Paige Wurth 12 Kalida (OH) 6 27:09.2 90.7 56
63 Mikinzie Dull 11 Lincolnview (OH) 4 27:20.5 90.1 57
64 Taylor Miller 9 Lima Perry (OH) 2 27:21.4 90.0
65 Ryanne Ducheney 9 Lincolnview (OH) 5 27:23.4 PR 89.9 58
66 Amelia Heslep 10 Bluffton (OH) 7 27:37.1 SR 89.2 59
67 Jadelyn Hennon 10 Waynesfield-Goshen (OH) 3 27:47.9 88.6 60
68 Terra Hunter 11 Ada (OK) 2 28:06.8 87.6
69 Maxine Wilson 10 Waynesfield-Goshen (OH) 4 28:25.4 PR 86.6 61
70 Jenna Crawford 10 Waynesfield-Goshen (OH) 5 29:02.3 PR 84.8 62
71 Sandra Breuer 11 Lima Perry (OH) 3 29:10.1 PR 84.4
72 Paige Crawford 10 Waynesfield-Goshen (OH) 6 29:18.9 PR 63
73 Hollie Wannemacher 10 Wayne Trace (OH) 3 29:20.1
74 Kendall Newcomer 11 McComb (MS) 1 29:37.1 83.1
75 Katelyn Kortokrax 12 Kalida (OH) 7 29:43 SR 64
76 Madison Poling 12 Wayne Trace (OH) 4 30:02
77 Camryn Sudlow 10 McComb (MS) 2 30:44.5 80.1
78 Tessa Howard 10 Lima Perry (OH) 4 32:32.2 PR 75.7
Something wrong on this page? Report it →